Electron Alley

Oops — I Never Saw It Do That Before . . . .

Archive for the ‘Erie Effects Wx Log’ Category

Erie Effects: September, 2001 Wx Log

leave a comment »

September 1

8:36 AM 73.4 °F 66.2 °F 78% 30.04 in 7.0 mi South 4.6 mph – 0.00 in Partly Cloudy

SPECI KLPR 011236Z AUTO 18004KT 7SM FEW065 23/19 A3004 RMK AO2 LTG DSNT E AND W AND NW TSB1154E30RAB07E17 P0000 $

Sunrise: 6:54am; Sunset: 8:04pm; Moonrise: 11:18am; Moonset: 9:48pm; Day length: 13h 10m

September 2

8:30 AM 75.2 °F 71.6 °F 89% 30.01 in 3.0 mi SW 3.5 mph – N/A Partly Cloudy

SPECI KLPR 021230Z AUTO 23003KT 3SM BR FEW100 24/22 A3001 RMK AO2

Sunrise: 6:55am; Sunset: 8:02pm; Moonrise: 12:32pm; Moonset: 10:29pm; Day length: 13h 7m

September 3

8:53 AM 77.0 °F 70.0 °F 79% 29.95 in 5.0 mi WSW 3.5 mph – 0.00 in Haze

METAR KLPR 031253Z AUTO 24003KT 5SM HZ CLR 25/21 A2997 RMK AO2 RAE00 SLP141 P0000 T02500211

Sunrise: 6:56am; Sunset: 8:00pm; Moonrise: 1:43pm; Moonset: 11:16pm; Day length: 13h 4m

September 4

8:53 AM 72.0 °F 66.9 °F 84% 29.83 in 8.0 mi WSW 4.6 mph – N/A Clear

METAR KLPR 041253Z AUTO 24004KT 8SM CLR 22/19 A2984 RMK AO2 SLP099 T02220194

Sunrise: 6:57am; Sunset: 7:59pm; Moonrise: 2:47pm; Moonset: none; First Qtr: 12:40pm; Day length: 13h 2m

September 5

7:53 AM 64.9 °F 59.0 °F 81% 29.88 in 10.0 mi NNE 11.5 mph – N/A Overcast

METAR KLPR 051153Z AUTO 02010KT 10SM SCT015 BKN020 OVC027 18/15 A2990 RMK AO2 SLP119 70044 T01830150 10206 20183 53010

Sunrise: 6:58am; Sunset: 7:57pm; Moonrise: 3:44pm; Moonset: 12:10am; Day length: 12h 59m

September 6

8:53 AM 62.1 °F 53.1 °F 72% 30.05 in 10.0 mi NE 10.4 mph 17.3 mph N/A Overcast

METAR KLPR 061253Z AUTO 05009G15KT 10SM FEW030 OVC040 17/12 A3006 RMK AO2 SLP176 T01670117

Sunrise: 6:59am; Sunset: 7:55pm; Moonrise: 4:32pm; Moonset: 1:10am; Day length: 12h 56m

September 7

8:53 AM 61.0 °F 57.9 °F 90% 29.99 in 5.0 mi East 10.4 mph – 0.02 in Rain Light Rain

METAR KLPR 071253Z AUTO 08009KT 5SM -RA BR BKN015 OVC029 16/14 A2999 RMK AO2 RAB30 SLP155 P0002 T01610144

Sunrise: 7:00am; Sunset: 7:54pm; Moonrise: 5:12pm; Moonset: 2:13am; Day length: 12h 54m

September 8

8:53 AM 66.0 °F 63.0 °F 90% 29.94 in 5.0 mi ESE 5.8 mph – 0.00 in Overcast

METAR KLPR 081253Z AUTO 11005KT 5SM BR SCT015 BKN038 OVC045 19/17 A2995 RMK AO2 RAB09E19 SLP137 P0000 T01890172

Sunrise: 7:01am; Sunset: 7:52pm; Moonrise: 5:46pm; Moonset: 3:17am; Day length: 12h 51m

September 9

8:48 AM 66.2 °F 64.4 °F 94% 29.94 in 3.0 mi West 3.5 mph – 0.01 in Rain Light Rain

SPECI KLPR 091248Z AUTO 26003KT 3SM -RA BR OVC003 19/18 A2994 RMK AO2 RAB17 CIG 003V007 P0001

Sunrise: 7:02am; Sunset: 7:50pm; Moonrise: 6:15pm; Moonset: 4:20am; Day length: 12h 48m

September 10

8:21 AM 66.2 °F 64.4 °F 94% 30.00 in 5.0 mi WNW 3.5 mph – N/A Overcast

SPECI KLPR 101221Z AUTO 30003KT 5SM BR OVC005 19/18 A3000 RMK AO2 LTG DSNT NE

Sunrise: 7:03am; Sunset: 7:48pm; Moonrise: 6:42pm; Moonset: 5:22am; Day length: 12h 46m

September 11

8:53 AM 64.9 °F 63.0 °F 93% 30.06 in 5.0 mi Calm Calm – N/A Partly Cloudy

METAR KLPR 111253Z AUTO 00000KT 5SM BR FEW075 18/17 A3007 RMK AO2 SLP178 T01830172 $

Sunrise: 7:04am; Sunset: 7:47pm; Moonrise: 7:06pm; Moonset: 6:23am; Day length: 12h 43m

September 12

8:53 AM 64.9 °F – 61.0 °F 87% 30.05 in 4.0 mi WSW 5.8 mph – N/A Clear

METAR KLPR 121253Z AUTO 24005KT 4SM BR CLR 18/16 A3005 RMK AO2 SLP174 T01830161

Sunrise: 7:05am; Sunset: 7:45pm; Moonrise: 7:31pm; Moonset: 7:22am; Full Moon: 4:28am Day length: 12h 40m

September 13

8:53 AM 69.1 °F – 60.1 °F 73% 29.88 in 10.0 mi SW 9.2 mph – N/A Clear

METAR KLPR 131253Z AUTO 22008KT 10SM CLR 21/16 A2989 RMK AO2 SLP116 T02060156

Sunrise: 7:06am; Sunset: 7:43pm; Moonrise: 7:55pm; Moonset: 8:21am; Day length: 12h 37m

September 14

8:53 AM 64.9 °F 59.0 °F 81% 29.99 in 10.0 mi Calm Calm – N/A Clear

METAR KLPR 141253Z AUTO 00000KT 10SM CLR 18/15 A3000 RMK AO2 SLP153 T01830150

Sunrise: 7:07am; Sunset: 7:42pm; Moonrise: 8:21pm; Moonset: 9:20am; Day length: 12h 35m

September 15


8:53 AM 54.0 °F 43.0 °F 66% 30.14 in 10.0 mi North 13.8 mph 23.0 mph N/A Overcast

METAR KLPR 151253Z AUTO 01012G20KT 10SM BKN029 OVC034 12/06 A3014 RMK AO2 SLP206 T01220061

Sunrise: 7:08am; Sunset: 7:40pm; Moonrise: 8:50pm; Moonset: 10:19am; Day length: 12h 32m

September 16

8:53 AM 51.1 °F 46.0 °F 83% 30.39 in 10.0 mi Calm Calm – N/A Clear

METAR KLPR 161253Z AUTO 00000KT 10SM CLR 11/08 A3038 RMK AO2 SLP291 T01060078

Sunrise: 7:09am; Sunset: 7:38pm; Moonrise: 9:22pm; Moonset: 11:18am; Day length: 12h 29m

September 17

8:53 PM 55.0 °F 50.0 °F 83% 30.32 in 10.0 mi ENE 3.5 mph – N/A Clear

METAR KLPR 180053Z AUTO 07003KT 10SM CLR 13/10 A3031 RMK AO2 SLP266 T01280100

Sunrise: 7:10am; Sunset: 7:36pm; Moonrise: 10:00pm; Moonset: 12:17pm; Day length: 12h 26m

September 18

8:53 AM 52.0 °F 46.9 °F 83% 30.34 in 10.0 mi SE 5.8 mph – N/A Clear

METAR KLPR 181253Z AUTO 14005KT 10SM CLR 11/08 A3033 RMK AO2 SLP273 T01110083

Sunrise: 7:11am; Sunset: 7:35pm; Moonrise: 10:43pm; Moonset: 1:13pm; Day length: 12h 24m

September 19

8:28 PM 64.4 °F 62.6 °F 94% 29.96 in 10.0 mi SSW 8.1 mph – 0.00 in Overcast

SPECI KLPR 200028Z AUTO 20007KT 10SM SCT010 OVC110 18/17 A2996 RMK AO2 RAE18 P0000

Sunrise: 7:12am; Sunset: 7:33pm; Moonrise: 11:33pm; Moonset: 2:07pm; Day length: 12h 21m

September 20

8:33 AM 62.6 °F 60.8 °F 94% 30.09 in 3.0 mi WSW 4.6 mph – 0.00 in Rain Light Rain

SPECI KLPR 201233Z AUTO 25004KT 3SM -RA BR BKN008 BKN012 OVC045 17/16 A3009 RMK AO2 RAB32 CIG 005V012 P0000

Sunrise: 7:13am; Sunset: 7:31pm; Moonrise: none; Moonset: 2:57pm; Last Qtr: 8:40am; Day length: 12h 18m

September 21

8:53 AM 66.0 °F 62.1 °F 87% 30.03 in 7.0 mi South 8.1 mph – N/A Overcast

METAR KLPR 211253Z AUTO 19007KT 7SM OVC037 19/17 A3004 RMK AO2 SLP169 T01890167

Sunrise: 7:14am; Sunset: 7:29pm; Moonrise: 12:29am; Moonset: 3:42pm; Day length: 12h 15m

September 22

8:53 AM 62.1 °F 57.9 °F 86% 30.09 in 10.0 mi Calm Calm – 0.01 in Clear

METAR KLPR 221253Z AUTO 00000KT 10SM CLR 17/14 A3010 RMK AO2 SLP188 P0001 T01670144

Sunrise: 7:15am; Sunset: 7:28pm; Moonrise: 1:32am; Moonset: 4:21pm; Day length: 12h 13m

September 23

8:34 AM 57.2 °F 55.4 °F 94% 30.03 in 3.0 mi North 5.8 mph – 0.13 in Rain Heavy Rain

SPECI KLPR 231234Z AUTO 01005KT 3SM +RA BR BKN009 BKN017 OVC036 14/13 A3003 RMK AO2 P0013

Sunrise: 7:16am; Sunset: 7:26pm; Moonrise: 2:39am; Moonset: 4:57pm; Day length: 12h 10m

September 24

8:18 AM 51.8 °F 51.8 °F 100% 30.08 in 1.5 mi SSW 6.9 mph – N/A Overcast

SPECI KLPR 241218Z AUTO 20006KT 1 1/2SM BR OVC002 11/11 A3008 RMK AO2

Sunrise: 7:17am; Sunset: 7:24pm; Moonrise: 3:50am; Moonset: 5:31pm; Day length: 12h 7m

September 25

8:46 AM 57.2 °F 55.4 °F 94% 30.05 in 6.0 mi Calm Calm – N/A Mostly Cloudy

SPECI KLPR 251246Z AUTO 00000KT 6SM BR BKN026 BKN041 14/13 A3005 RMK AO2

Sunrise: 7:18am; Sunset: 7:23pm; Moonrise: 5:03am; Moonset: 6:02pm; Day length: 12h 4m

September 26

8:53 AM 71.1 °F 62.1 °F 73% 29.80 in 10.0 mi SSE 11.5 mph – 0.00 in Mostly Cloudy

METAR KLPR 261253Z AUTO 15010KT 10SM BKN060 BKN085 22/17 A2981 RMK AO2 RAB27E34 SLP091 P0000 T02170167

Sunrise: 7:19am; Sunset: 7:21pm; Moonrise: 6:18am; Moonset: 6:34pm; Day length: 12h 2m

September 27

8:53 AM 53.1 °F 51.1 °F 93% 29.91 in 2.5 mi South 9.2 mph – N/A Overcast

METAR KLPR 271253Z AUTO 17008KT 2 1/2SM BR OVC002 12/11 A2991 RMK AO2 SLP129 T01170106

Sunrise: 7:20am; Sunset: 7:19pm; Moonrise: 7:35am; Moonset: 7:06pm; New Moon: 6:10am; Day length: 11h 59m

September 28

8:53 AM 57.0 °F 53.1 °F 87% 29.86 in 6.0 mi South 5.8 mph – N/A Scattered Clouds

METAR KLPR 281253Z AUTO 18005KT 6SM BR FEW060 SCT070 14/12 A2986 RMK AO2 SLP109 T01390117

Sunrise: 7:21am; Sunset: 7:17pm; Moonrise: 8:52am; Moonset: 7:42pm; Day length: 11h 56m

September 29

8:34 AM 55.4 °F 51.8 °F 88% 29.76 in 5.0 mi WSW 5.8 mph – N/A Overcast

SPECI KLPR 291234Z AUTO 24005KT 5SM BR BKN010 BKN014 OVC020 13/11 A2976 RMK AO2 CIG 008V012

Sunrise: 7:22am; Sunset: 7:16pm; Moonrise: 10:10am; Moonset: 8:23pm; Day length: 11h 53m

September 30

8:53 AM 54.0 °F – 48.9 °F 83% 29.62 in 10.0 mi WSW 11.5 mph – 0.00 in Overcast

METAR KLPR 301253Z AUTO 25010KT 10SM BKN017 OVC025 12/09 A2962 RMK AO2 RAB15E49 SLP030 P0000 T01220094

Sunrise: 7:23am; Sunset: 7:14pm; Moonrise: 11:25am; Moonset: 9:10pm; Day length: 11h 51m

 Weather Data from this Great Site

Advertisements

Erie Effects: August, 2011 – Wx Log

leave a comment »

August 1

8:53 AM Temp-78.1 °F Dew Pt.-68.0 °F 71% 30.02 in 10.0 mi WSW 6.9 mph – N/A Clear

METAR KLPR 011253Z AUTO 25006KT 10SM CLR 26/20 A3004 RMK AO2 SLP165 T02560200

Sunrise: 6:22am; Sunset: 8:47pm; Moonrise: 8:40am; Moonset: 9:38pm; Day length: 14h 25m

August 2

8:53 AM Temp-79.0 °F Dew Pt-72.0 °F 79% 29.91 in 9.0 mi WSW 4.6 mph – N/A Clear

Sunrise: 6:23am; Sunset: 8:46pm; Moonrise: 9:53am; Moonset: 10:08pm; Day length: 14h 23m

August 3

8:26 AM Temp-73.4 °F Dew Pt.-69.8 °F 88% 29.69 in 2.5 mi SW 5.8 mph – 0.02 in Rain Light Rain

SPECI KLPR 031226Z AUTO 22005KT 2 1/2SM -RA BR BKN030 OVC036 23/21 A2969 RMK AO2 P0002

Sunrise: 6:24am; Sunset: 8:45pm; Moonrise: 11:07am; Moonset: 10:38pm; Day length: 14h 20m

August 4

8:53 AM Temp-75.9 °F Dew Pt.-66.9 °F 74% 29.90 in 10.0 mi North 4.6 mph – N/A Partly Cloudy

METAR KLPR 041253Z AUTO 01004KT 10SM FEW055 24/19 A2992 RMK AO2 SLP125 T02440194

Sunrise: 6:25am; Sunset: 8:44pm; Moonrise: 12:20pm; Moonset: 11:11pm; Day length: 14h 18m

August 5

8:53 AM Temp75.0 °F Dew Pt.-69.1 °F 82% 30.00 in 10.0 mi Calm Calm – N/A Partly Cloudy

METAR KLPR 051253Z AUTO 00000KT 10SM FEW070 24/21 A3002 RMK AO2 SLP159 T02390206

Sunrise: 6:26am; Sunset: 8:43pm; Moonrise: 1:33pm; Moonset: 11:48pm; Day length: 14h 16m

August 6

8:53 AM Temp-78.1 °F Dew Pt.-70.0 °F 76% 29.90 in 9.0 mi SW 3.5 mph – N/A Clear

METAR KLPR 061253Z AUTO 23003KT 9SM CLR 26/21 A2992 RMK AO2 SLP124 T02560211

Sunrise: 6:27am; Sunset: 8:41pm; Moonrise: 2:44pm; Moonset: none; First Qtr: 6:09am; Day length: 14h 14m

August 7

8:29 AM Temp-75.2 °F Dew Pt.-71.6 °F 89% 29.78 in 4.0 mi WNW 6.9 mph – N/A Partly Cloudy

SPECI KLPR 071229Z AUTO 29006KT 4SM BR FEW008 24/22 A2978 RMK AO2

Sunrise: 6:28am; Sunset: 8:40pm; Moonrise: 3:52pm; Moonset: 12:30am; Day length: 14h 12m

August 8

8:48 AM Temp-73.4 °F Dew Pt-69.8 °F 88% 29.74 in 6.0 mi West 3.5 mph – N/A Overcast

SPECI KLPR 081248Z AUTO 27003KT 6SM BR SCT004 BKN016 OVC050 23/21 A2974 RMK AO2

Sunrise: 6:29am; Sunset: 8:39pm; Moonrise: 4:54pm; Moonset: 1:19am; Day length: 14h 9m

August 9

8:22 AM Temp-69.8 °F Dew Pt.-66.2 °F 88% 29.60 in 10.0 mi West 8.1 mph – N/A Overcast

SPECI KLPR 091222Z AUTO 27007KT 10SM SCT008 BKN055 OVC080 21/19 A2960 RMK AO2

Sunrise: 6:30am; Sunset: 8:38pm; Moonrise: 5:47pm; Moonset: 2:14am; Day length: 14h 7m

August 10

8:53 AM Temp-69.1 °F Dew Pt.-62.1 °F 78% 29.71 in 10.0 mi West 8.1 mph – N/A Clear

METAR KLPR 101253Z AUTO 26007KT 10SM CLR 21/17 A2972 RMK AO2 SLP059 T02060167

Sunrise: 6:31am; Sunset: 8:36pm; Moonrise: 6:33pm; Moonset: 3:15am; Day length: 14h 5m

August 11

8:53 AM Temp-68.0 °F Dew Pt.-59.0 °F 73% 29.95 in 10.0 mi SW 3.5 mph – N/A Clear

METAR KLPR 111253Z AUTO 23003KT 10SM CLR 20/15 A2996 RMK AO2 SLP141 T02000150

Sunrise: 6:32am; Sunset: 8:35pm; Moonrise: 7:11pm; Moonset: 4:19am; Day length: 14h 3m

August 12

8:53 AM Temp-64.9 °F Dew Pt.-55.0 °F 70% 30.08 in 10.0 mi SSW 3.5 mph – N/A Clear

METAR KLPR 121253Z AUTO 20003KT 10SM CLR 18/13 A3009 RMK AO2 SLP185 T01830128

Sunrise: 6:33am; Sunset: 8:34pm; Moonrise: 7:44pm; Moonset: 5:24am; Day length: 14h 0m

August 13

8:53 AM Temp-68.0 °F Dew Pt.-59.0 °F 73% 29.97 in 10.0 mi SW 5.8 mph – N/A Clear

METAR KLPR 131253Z AUTO 22005KT 10SM CLR 20/15 A2998 RMK AO2 SLP147 T02000150

Sunrise: 6:34am; Sunset: 8:32pm; Moonrise: 8:12pm; Moonset: 6:28am; Full Moon: 1:59pm; Day length: 13h 58m

August 14

8:31 AM Temp-66.2 °F Dew Pt.-64.4 °F 94% 29.84 in 4.0 mi Calm Calm – 0.00 in Rain Light Rain

SPECI KLPR 141231Z AUTO 00000KT 4SM -RA BR BKN017 OVC110 19/18 A2984 RMK AO2 RAB31 P0000

Sunrise: 6:36am; Sunset: 8:31pm; Moonrise: 8:38pm; Moonset: 7:31am; Day length: 13h 55m

August 15

8:53 AM Temp-71.1 °F Dew Pt.-66.0 °F 84% 29.86 in 10.0 mi North 10.4 mph – N/A Mostly Cloudy

METAR KLPR 151253Z AUTO 36009KT 10SM SCT012 SCT018 BKN065 22/19 A2987 RMK AO2 LTG DSNT E SLP109 T02170189

Sunrise: 6:37am; Sunset: 8:30pm; Moonrise: 9:02pm; Moonset: 8:32am; Day length: 13h 53m

August 16

8:53 AM Temp-71.1 °F Dew Pt.-60.1 °F 68% 30.04 in 10.0 mi North 4.6 mph – N/A Clear

METAR KLPR 161253Z AUTO 01004KT 10SM CLR 22/16 A3006 RMK AO2 SLP172 T02170156

Sunrise: 6:38am; Sunset: 8:28pm; Moonrise: 9:27pm; Moonset: 9:31am; Day length: 13h 51m

August 17

8:53 PM Temp-72.0 °F Dew Pt.-66.0 °F 81% 30.04 in 10.0 mi Calm Calm – N/A Clear

METAR KLPR 180053Z AUTO 00000KT 10SM CLR 22/19 A3005 RMK AO2 SLP172 T02220189

Sunrise: 6:39am; Sunset: 8:27pm; Moonrise: 9:52pm; Moonset: 10:30am; Day length: 13h 48m

August 18

8:53 AM Temp-70.0 °F Dew Pt.-64.0 °F 81% 30.03 in 8.0 mi SW 3.5 mph – N/A Clear

METAR KLPR 181253Z AUTO 23003KT 8SM CLR 21/18 A3005 RMK AO2 SLP169 T02110178

Sunrise: 6:40am; Sunset: 8:25pm; Moonrise: 10:18pm; Moonset: 11:29am; Day length: 13h 46m

August 19

8:34 AM Temp-69.8 °F Dew Pt.-66.2 °F 88% 29.93 in 3.0 mi West 3.5 mph – N/A Clear

SPECI KLPR 191234Z AUTO 27003KT 3SM BR CLR 21/19 A2993 RMK AO2

Sunrise: 6:41am; Sunset: 8:24pm; Moonrise: 10:48pm; Moonset: 12:29pm; Day length: 13h 43m

August 20

8:53 AM Temp-69.1 °F Dew Pt.-62.1 °F 78% 30.01 in 6.0 mi SSW 3.5 mph – N/A Haze

METAR KLPR 201253Z AUTO 20003KT 6SM HZ CLR 21/17 A3001 RMK AO2 SLP160 T02060167

Sunrise: 6:42am; Sunset: 8:22pm; Moonrise: 11:22pm; Moonset: 1:28pm; Day length: 13h 41m

August 21

8:53 AM Temp-70.0 °F Dew Pt.-66.9 °F 90% 29.92 in 5.0 mi West 3.5 mph – 0.02 in Mostly Cloudy

METAR KLPR 211253Z AUTO 26003KT 5SM BR SCT031 BKN110 21/19 A2993 RMK AO2 RAB31E51 SLP131 P0002 T02110194

Sunrise: 6:43am; Sunset: 8:21pm; Moonrise: none; Moonset: 2:26pm; Last Qtr: 4:56pm; Day length: 13h 38m

August 22

8:53 PM Temp-63.0 °F Dew Pt.-57.9 °F 84% 30.03 in 10.0 mi Calm Calm – N/A Clear

METAR KLPR 230053Z AUTO 00000KT 10SM CLR 17/14 A3003 RMK AO2 SLP167 T01720144

Sunrise: 6:44am; Sunset: 8:19pm; Moonrise: 12:02am; Moonset: 3:23pm; Day length: 13h 36m

August 23

7:53 AM Temp-61.0 °F Dew Pt.-54.0 °F 78% 30.05 in 10.0 mi SSW 3.5 mph – N/A Clear

METAR KLPR 231153Z AUTO 20003KT 10SM CLR 16/12 A3005 RMK AO2 SLP174 T01610122 10161 20133 50000 $

Sunrise: 6:45am; Sunset: 8:18pm; Moonrise: 12:48am; Moonset: 4:17pm; Day length: 13h 33m

August 24

8:53 AM Temp-66.9 °F Dew Pt.-62.1 °F 84% 29.83 in 10.0 mi SSW 15.0 mph 23.0 mph N/A Mostly Cloudy

METAR KLPR 241253Z AUTO 21013G20KT 10SM BKN060 19/17 A2984 RMK AO2 SLP100 T01940167

Sunrise: 6:46am; Sunset: 8:16pm; Moonrise: 1:42am; Moonset: 5:06pm; Day length: 13h 31m

August 25

8:53 AM Temp-71.1 °F Dew Pt.-66.0 °F 84% 29.82 in 10.0 mi WNW 5.8 mph – N/A Clear

METAR KLPR 251253Z AUTO 29005KT 10SM CLR 22/19 A2984 RMK AO2 SLP098 T02170189

Sunrise: 6:47am; Sunset: 8:15pm; Moonrise: 2:43am; Moonset: 5:50pm; Day length: 13h 28m

August 26

8:53 PM Temp-66.0 °F Dew Pt.-62.1 °F 87% 29.97 in 10.0 mi Calm Calm – N/A Clear

METAR KLPR 270053Z AUTO 00000KT 10SM CLR 19/17 A2998 RMK AO2 SLP149 T01890167

Sunrise: 6:48am; Sunset: 8:13pm; Moonrise: 3:51am; Moonset: 6:28pm; Day length: 13h 25m

August 27

8:53 AM Temp-66.9 °F Dew Pt.-64.0 °F 90% 29.91 in 8.0 mi Calm Calm – N/A Clear

METAR KLPR 271253Z AUTO 00000KT 8SM CLR 19/18 A2992 RMK AO2 SLP128 T01940178

Sunrise: 6:49am; Sunset: 8:12pm; Moonrise: 5:02am; Moonset: 7:03pm; Day length: 13h 23m

August 28

7:53 AM Temp-68.0 °F Dew Pt.-64.0 °F 87% 29.74 in 10.0 mi North 12.7 mph 17.3 mph N/A Overcast

METAR KLPR 281153Z AUTO 01011G15KT 10SM BKN011 BKN050 OVC070 20/18 A2975 RMK AO2 SLP070 T02000178 10206 20194 53000

Sunrise: 6:50am; Sunset: 8:10pm; Moonrise: 6:16am; Moonset: 7:36pm; New Moon: 10:05pm; Day length: 13h 20m

August 29

8:53 AM Temp-61.0 °F Dew Pt.-57.0 °F 87% 30.03 in 10.0 mi Calm Calm – N/A Clear

METAR KLPR 291253Z AUTO 00000KT 10SM CLR 16/14 A3004 RMK AO2 SLP169 T01610139

Sunrise: 6:51am; Sunset: 8:08pm; Moonrise: 7:31am; Moonset: 8:07pm; Day length: 13h 18m

August 30

8:53 AM Temp-62.1 °F Dew Pt.-55.0 °F 78% 30.15 in 10.0 mi Calm Calm – N/A Clear

METAR KLPR 301253Z AUTO 00000KT 10SM CLR 17/13 A3016 RMK AO2 SLP209 T01670128

Sunrise: 6:52am; Sunset: 8:07pm; Moonrise: 8:46am; Moonset: 8:38pm; Day length: 13h 15m

August 31

8:53 AM Temp-66.9 °F Dew Pt.-59.0 °F 76% 30.13 in 10.0 mi Calm Calm – N/A Clear

METAR KLPR 311253Z AUTO 00000KT 10SM CLR 19/15 A3014 RMK AO2 SLP201 T01940150

Sunrise: 6:53am; Sunset: 8:05pm; Moonrise: 10:02am; Moonset: 9:11pm; Day length: 13h 12m

 Weather Data from this Great Site

Erie Effects: July, 2011 Wx Log

leave a comment »

July 1

8:53 AM 72.0 °F 55.9 °F 57% 30.07 in 10.0 mi SE 5.8 mph – N/A Clear

METAR KLPR 011253Z AUTO 14005KT 10SM CLR 22/13 A3008 RMK AO2 SLP181 T02220133

Sunrise: 5:58am; Sunset: 9:06pm; Moonrise: 6:14am; Moonset: 9:23pm; New Moon: 3:55am; Day length: 15h 8m

July 2

8:11 AM 77.0 °F 66.2 °F 69% 30.05 in 10.0 mi SW 10.4 mph – N/A Mostly Cloudy

SPECI KLPR 021211Z AUTO 22009KT 10SM SCT080 BKN095 25/19 A3005 RMK AO2 LTG DSNT SW TSE05

Sunrise: 5:59am; Sunset: 9:06pm; Moonrise: 7:22am; Moonset: 10:01pm; Day length: 15h 8m

July 3

8:33 AM 73.4 °F 69.8 °F 88% 29.99 in 6.0 mi WSW 3.5 mph – N/A Overcast

SPECI KLPR 031233Z AUTO 25003KT 6SM BR OVC009 23/21 A2999 RMK AO2 $

Sunrise: 5:59am; Sunset: 9:06pm; Moonrise: 8:32am; Moonset: 10:36pm; Day length: 15h 7m

July 4

8:53 AM 75.0 °F 64.0 °F 69% 29.94 in 10.0 mi South 9.2 mph – N/A Clear

METAR KLPR 041253Z AUTO 17008KT 10SM CLR 24/18 A2996 RMK AO2 SLP138 T02390178

Sunrise: 6:00am; Sunset: 9:06pm; Moonrise: 9:44am; Moonset: 11:06pm; Day length: 15h 6m

July 5

8:53 AM 73.9 °F 60.1 °F 62% 30.01 in 10.0 mi SSW 3.5 mph – N/A Clear

METAR KLPR 051253Z AUTO 20003KT 10SM CLR 23/16 A3003 RMK AO2 SLP163 T02330156

Sunrise: 6:00am; Sunset: 9:06pm; Moonrise: 10:55am; Moonset: 11:36pm; Day length: 15h 5m

July 6

8:53 AM 75.0 °F 63.0 °F 66% 29.94 in 10.0 mi SW 6.9 mph – N/A Clear METAR KLPR 061253Z AUTO 22006KT 10SM CLR 24/17 A2996 RMK AO2 SLP139 T02390172

Sunrise: 6:01am; Sunset: 9:05pm; Moonrise: 12:07pm; Moonset: none; Day length: 15h 5m

July 7

8:53 AM 75.9 °F 66.9 °F 74% 29.99 in 10.0 mi ENE 8.1 mph – N/A Clear

METAR KLPR 071253Z AUTO 07007KT 10SM CLR 24/19 A3001 RMK AO2 SLP156 T02440194

Sunrise: 6:01am; Sunset: 9:05pm; Moonrise: 1:18pm; Moonset: 12:05am; Day length: 15h 4m

July 8

8:53 AM 72.0 °F 63.0 °F 73% 29.85 in 10.0 mi Calm Calm – 0.00 in Rain Light Rain

METAR KLPR 081253Z AUTO 00000KT 10SM -RA FEW043 22/17 A2986 RMK AO2 RAB41 SLP106 P0000 T02220172

Sunrise: 6:02am; Sunset: 9:05pm; Moonrise: 2:30pm; Moonset: 12:35am; First Qtr: 1:31am; Day length: 15h 3m

July 9

8:53 AM 73.0 °F – 66.0 °F 79% 29.99 in 8.0 mi Calm Calm – N/A Clear

METAR KLPR 091253Z AUTO 00000KT 8SM CLR 23/19 A3001 RMK AO2 SLP154 T02280189

Sunrise: 6:03am; Sunset: 9:04pm; Moonrise: 3:42pm; Moonset: 1:08am; Day length: 15h 2m

July 10

8:53 AM 77.0 °F – 64.0 °F 64% 30.04 in 10.0 mi SSW 5.8 mph – N/A Clear

METAR KLPR 101253Z AUTO 20005KT 10SM CLR 25/18 A3006 RMK AO2 SLP172 T02500178 $

Sunrise: 6:03am; Sunset: 9:04pm; Moonrise: 4:53pm; Moonset: 1:46am; Day length: 15h 1m

July 11

8:53 AM 81.0 °F 83.3 °F 66.9 °F 62% 29.93 in 9.0 mi SW 8.1 mph – N/A Clear

METAR KLPR 111253Z AUTO 23007KT 9SM CLR 27/19 A2995 RMK AO2 SLP133 T02720194

Sunrise: 6:04am; Sunset: 9:04pm; Moonrise: 6:00pm; Moonset: 2:31am; Day length: 14h 59m

July 12

8:53 AM 79.0 °F 71.1 °F 77% 29.89 in 10.0 mi WNW 5.8 mph – N/A Partly Cloudy

METAR KLPR 121253Z AUTO 29005KT 10SM FEW100 26/22 A2990 RMK AO2 SLP120 T02610217

Sunrise: 6:05am; Sunset: 9:03pm; Moonrise: 7:00pm; Moonset: 3:23am; Day length: 14h 58m

July 13

8:53 AM 72.0 °F 61.0 °F 68% 29.96 in 10.0 mi NNE 8.1 mph – N/A Clear

METAR KLPR 131253Z AUTO 03007KT 10SM CLR 22/16 A2998 RMK AO2 SLP146 T02220161

Sunrise: 6:06am; Sunset: 9:03pm; Moonrise: 7:52pm; Moonset: 4:22am; Day length: 14h 57m

July 14

8:53 AM 71.1 °F 57.9 °F 63% 30.11 in 10.0 mi East 5.8 mph – N/A Clear

METAR KLPR 141253Z AUTO 10005KT 10SM CLR 22/14 A3012 RMK AO2 SLP195 T02170144

Sunrise: 6:06am; Sunset: 9:02pm; Moonrise: 8:36pm; Moonset: 5:25am; Day length: 14h 56m

July 15

8:53 AM 70.0 °F 59.0 °F 68% 30.04 in 10.0 mi Calm Calm – N/A Clear

METAR KLPR 151253Z AUTO 00000KT 10SM CLR 21/15 A3006 RMK AO2 SLP173 T02110150

Sunrise: 6:07am; Sunset: 9:01pm; Moonrise: 9:12pm; Moonset: 6:31am; Full Moon: 1:41am; Day length: 14h 54m

July 16

8:53 AM 75.9 °F 63.0 °F 64% 30.09 in 10.0 mi SW 5.8 mph – N/A Clear

METAR KLPR 161253Z AUTO 22005KT 10SM CLR 24/17 A3011 RMK AO2 SLP189 T02440172

Sunrise: 6:08am; Sunset: 9:01pm; Moonrise: 9:43pm; Moonset: 7:37am; Day length: 14h 53m

July 17

8:53 AM 75.0 °F 69.1 °F 82% 30.16 in 5.0 mi South 6.9 mph – N/A Haze

METAR KLPR 171253Z AUTO 18006KT 5SM HZ CLR 24/21 A3018 RMK AO2 SLP212 T02390206

Sunrise: 6:09am; Sunset: 9:00pm; Moonrise: 10:10pm; Moonset: 8:41am; Day length: 14h 51m

July 18

8:53 AM 82.0 °F 86.3 °F 71.1 °F 69% 30.03 in 6.0 mi SW 8.1 mph – N/A Haze

METAR KLPR 181253Z AUTO 23007KT 6SM HZ CLR 28/22 A3005 RMK AO2 SLP168 T02780217

Sunrise: 6:10am; Sunset: 9:00pm; Moonrise: 10:35pm; Moonset: 9:43am; Day length: 14h 50m

July 19

8:12 AM 77.0 °F 73.4 °F 89% 29.89 in 10.0 mi SSW 5.8 mph – N/A Mostly Cloudy

SPECI KLPR 191212Z AUTO 20005KT 10SM BKN014 25/23 A2989 RMK AO2

Sunrise: 6:10am; Sunset: 8:59pm; Moonrise: 10:59pm; Moonset: 10:44am; Day length: 14h 48m

July 20

8:53 AM 79.0 °F 71.1 °F 77% 29.90 in 7.0 mi SSW 6.9 mph – N/A Clear

METAR KLPR 201253Z AUTO 21006KT 7SM CLR 26/22 A2992 RMK AO2 SLP123 T02610217

Sunrise: 6:11am; Sunset: 8:58pm; Moonrise: 11:23pm; Moonset: 11:43am; Day length: 14h 47m

July 21

8:53 AM 86.0 °F 95.1 °F 75.0 °F 70% 29.82 in 10.0 mi WSW 9.2 mph – N/A Clear

METAR KLPR 211253Z AUTO 25008KT 10SM CLR 30/24 A2984 RMK AO2 SLP097 T03000239

Sunrise: 6:12am; Sunset: 8:57pm; Moonrise: 11:48pm; Moonset: 12:42pm; Day length: 14h 45m

July 22

8:53 AM 84.0 °F 87.8 °F 69.1 °F 61% 29.94 in 10.0 mi Calm Calm – N/A Clear

METAR KLPR 221253Z AUTO 00000KT 10SM CLR 29/21 A2996 RMK AO2 SLP136 T02890206

Sunrise: 6:13am; Sunset: 8:57pm; Moonrise: none; Moonset: 1:41pm; Day length: 14h 44m

July 23

8:53 AM 75.9 °F – 73.0 °F 91% 29.99 in 10.0 mi West 5.8 mph – N/A Clear

METAR KLPR 231253Z AUTO 26005KT 10SM CLR 24/23 A3001 RMK AO2 LTG DSNT W AND NW SLP156 T02440228 $

Sunrise: 6:14am; Sunset: 8:56pm; Moonrise: 12:16am; Moonset: 2:40pm; Last Qtr: 12:03am; Day length: 14h 42m

July 24

8:53 AM 78.1 °F 73.0 °F 84% 30.00 in 10.0 mi West 5.8 mph – N/A Clear

METAR KLPR 241253Z AUTO 27005KT 10SM CLR 26/23 A3002 RMK AO2 SLP159 T02560228

Sunrise: 6:15am; Sunset: 8:55pm; Moonrise: 12:47am; Moonset: 3:40pm; Day length: 14h 40m

July 25

8:53 AM 78.1 °F 73.0 °F 84% 29.90 in 9.0 mi West 6.9 mph – N/A Partly Cloudy

METAR KLPR 251253Z AUTO 26006KT 9SM FEW095 26/23 A2992 RMK AO2 SLP124 T02560228

Sunrise: 6:16am; Sunset: 8:54pm; Moonrise: 1:24am; Moonset: 4:39pm; Day length: 14h 38m

July 26

8:53 AM 75.9 °F 66.0 °F 71% 29.82 in 10.0 mi West 6.9 mph – N/A Clear

METAR KLPR 261253Z AUTO 27006KT 10SM CLR 24/19 A2984 RMK AO2 SLP096 T02440189

Sunrise: 6:17am; Sunset: 8:53pm; Moonrise: 2:07am; Moonset: 5:36pm; Day length: 14h 36m

July 27

8:53 AM 72.0 °F 63.0 °F 73% 29.99 in 10.0 mi South 3.5 mph – N/A Clear

METAR KLPR 271253Z AUTO 17003KT 10SM CLR 22/17 A3001 RMK AO2 SLP156 T02220172

Sunrise: 6:18am; Sunset: 8:52pm; Moonrise: 2:58am; Moonset: 6:28pm; Day length: 14h 35m

July 28

8:53 AM 77.0 °F 71.1 °F 82% 29.96 in 8.0 mi SW 3.5 mph – 0.00 in Scattered Clouds

METAR KLPR 281253Z AUTO 23003KT 8SM FEW038 SCT110 25/22 A2998 RMK AO2 LTG DSNT E RAE02 SLP145 P0000 T02500217

Sunrise: 6:19am; Sunset: 8:51pm; Moonrise: 3:57am; Moonset: 7:16pm; Day length: 14h 33m

July 29

8:30 AM 75.2 °F 71.6 °F 89% 30.01 in 2.0 mi West 11.5 mph – 0.27 in Rain , Thunderstorm Heavy Rain

SPECI KLPR 291230Z AUTO 27010KT 2SM VCTS +RA BR BKN025 BKN038 OVC060 24/22 A3001 RMK AO2 VIS 1 1/4V4 LTG DSNT ALQDS TSB26 P0027

Sunrise: 6:20am; Sunset: 8:50pm; Moonrise: 5:03am; Moonset: 7:57pm; Day length: 14h 31m

July 30

8:29 AM 73.4 °F 71.6 °F 94% 30.10 in 3.0 mi Calm Calm – N/A Mostly Cloudy

SPECI KLPR 301229Z AUTO 00000KT 3SM BR FEW001 BKN008 23/22 A3010 RMK AO2

Sunrise: 6:21am; Sunset: 8:49pm; Moonrise: 6:13am; Moonset: 8:34pm; New Moon: 1:41pm; Day length: 14h 29m

July 31

8:53 AM 77.0 °F 64.9 °F 66% 30.13 in 10.0 mi WSW 4.6 mph – N/A Clear

METAR KLPR 311253Z AUTO 24004KT 10SM CLR 25/18 A3014 RMK AO2 SLP202 T02500183

Sunrise: 6:21am; Sunset: 8:48pm; Moonrise: 7:26am; Moonset: 9:07pm; Day length: 14h 27m

 Weather Data from this Great Site

Erie Effects: June, 2011 Wx Log

leave a comment »

June 1

8:53 AM 77.0 °F 57.0 °F 50% 30.16 in 10.0 miles WNW 12.7 mph 23.0 mph N/A Clear

METAR KLPR 011253Z AUTO 29011G20KT 10SM CLR 25/14 A3018 RMK AO2 SLP212 T02500139

Sunrise: 5:57am; Sunset: 8:55pm; Moonrise: 5:35am; Moonset: 9:04pm; New Moon: 4:04pm; Day length: 14h 58m

June 2

8:53 AM 62.1 °F 46.0 °F 56% 30.23 in 10.0 miles North 10.4 mph – N/A Clear

METAR KLPR 021253Z AUTO 01009KT 10SM CLR 17/08 A3024 RMK AO2 SLP237 T01670078

Sunrise: 5:57am; Sunset: 8:56pm; Moonrise: 6:25am; Moonset: 9:57pm; Day length: 14h 59m

June 3

8:53 AM 59.0 °F 46.0 °F 62% 30.28 in 10.0 miles ESE 4.6 mph – N/A Clear

METAR KLPR 031253Z AUTO 12004KT 10SM CLR 15/08 A3028 RMK AO2 SLP254 T01500078

Sunrise: 5:56am; Sunset: 8:56pm; Moonrise: 7:23am; Moonset: 10:44pm; Day length: 15h 0m

June 4

8:53 AM 69.1 °F 53.1 °F 57% 30.09 in 10.0 miles SSW 10.4 mph – N/A Scattered Clouds

METAR KLPR 041253Z AUTO 20009KT 10SM SCT055 21/12 A3009 RMK AO2 SLP188 T02060117

Sunrise: 5:56am; Sunset: 8:57pm; Moonrise: 8:27am; Moonset: 11:25pm; Day length: 15h 1m

June 5

8:53 AM 73.0 °F 64.0 °F 73% 30.09 in 5.0 miles NE 3.5 mph – N/A Haze

METAR KLPR 051253Z AUTO 05003KT 5SM HZ CLR 23/18 A3010 RMK AO2 SLP187 T02280178

Sunrise: 5:56am; Sunset: 8:58pm; Moonrise: 9:34am; Moonset: none; Day length: 15h 2m

June 6

8:53 AM 72.0 °F 55.9 °F 57% 30.06 in 10.0 miles Calm Calm – N/A Clear

METAR KLPR 061253Z AUTO 00000KT 10SM CLR 22/13 A3008 RMK AO2 SLP180 T02220133

Sunrise: 5:55am; Sunset: 8:59pm; Moonrise: 10:44am; Moonset: 12:01am; Day length: 15h 3m

June 7

8:14 AM 75.2 °F 62.6 °F 65% 29.92 in 10.0 miles SW 8.1 mph – N/A Thunderstorm Partly Cloudy

SPECI KLPR 071214Z AUTO 22007KT 10SM VCTS FEW060 24/17 A2992 RMK AO2 LTG DSNT NW-E TSB08

Sunrise: 5:55am; Sunset: 8:59pm; Moonrise: 11:54am; Moonset: 12:33am; Day length: 15h 4m

June 8

8:53 AM 82.0 °F 69.1 °F 65% 29.96 in 8.0 miles WSW 9.2 mph – N/A Clear

METAR KLPR 081253Z AUTO 25008KT 8SM CLR 28/21 A2997 RMK AO2 SLP143 T02780206

Sunrise: 5:55am; Sunset: 9:00pm; Moonrise: 1:04pm; Moonset: 1:02am; First Qtr: 9:12pm; Day length: 15h 5m

June 9

8:53 AM 73.9 °F 64.9 °F 73% 29.95 in 10.0 miles WSW 4.6 mph – N/A Clear

METAR KLPR 091253Z AUTO 24004KT 10SM CLR 23/18 A2997 RMK AO2 SLP142 T02330183

Sunrise: 5:55am; Sunset: 9:00pm; Moonrise: 2:15pm; Moonset: 1:31am; Day length: 15h 6m

June 10

8:53 AM 64.0 °F 57.0 °F 78% 30.05 in 10.0 miles ENE 8.1 mph – N/A Mostly Cloudy

METAR KLPR 101253Z AUTO 07007KT 10SM BKN012 18/14 A3006 RMK AO2 SLP174 T01780139

Sunrise: 5:54am; Sunset: 9:01pm; Moonrise: 3:27pm; Moonset: 2:00am; Day length: 15h 7m

June 11

8:53 AM 69.1 °F 64.0 °F 84% 29.92 in 10.0 miles South 11.5 mph – N/A Clear

METAR KLPR 111253Z AUTO 19010KT 10SM CLR 21/18 A2993 RMK AO2 SLP131 T02060178

Sunrise: 5:54am; Sunset: 9:02pm; Moonrise: 4:41pm; Moonset: 2:32am; Day length: 15h 7m

June 12

8:19 AM 62.6 °F 57.2 °F 82% 29.96 in 10.0 miles North 11.5 mph – N/A Overcast

SPECI KLPR 121219Z AUTO 01010KT 10SM OVC010 17/14 A2996 RMK AO2 CIG 009V012

Sunrise: 5:54am; Sunset: 9:02pm; Moonrise: 5:54pm; Moonset: 3:07am; Day length: 15h 8m

June 13

8:53 AM 64.9 °F 51.1 °F 61% 30.08 in 10.0 miles North 13.8 mph – N/A Clear

METAR KLPR 131253Z AUTO 35012KT 10SM CLR 18/11 A3009 RMK AO2 SLP186 T01830106

Sunrise: 5:54am; Sunset: 9:03pm; Moonrise: 7:06pm; Moonset: 3:48am; Day length: 15h 8m

June 14

8:20 AM 60.8 °F 53.6 °F 77% 30.08 in 10.0 miles NE 13.8 mph – N/A Scattered Clouds

SPECI KLPR 141220Z AUTO 04012KT 10SM FEW014 SCT020 16/12 A3008 RMK AO2

Sunrise: 5:54am; Sunset: 9:03pm; Moonrise: 8:12pm; Moonset: 4:37am; Day length: 15h 9m

June 15

8:53 AM 62.1 °F 50.0 °F 65% 29.99 in 10.0 miles SE 11.5 mph – N/A Clear

METAR KLPR 151253Z AUTO 14010KT 10SM CLR 17/10 A2999 RMK AO2 SLP154 T01670100

Sunrise: 5:54am; Sunset: 9:03pm; Moonrise: 9:10pm; Moonset: 5:33am; Full Moon: 3:15pm; Day length: 15h 9m

June 16

8:53 AM 68.0 °F 60.1 °F 76% 29.77 in 10.0 miles SSW 8.1 mph – N/A Overcast

METAR KLPR 161253Z AUTO 20007KT 10SM FEW020 OVC049 20/16 A2979 RMK AO2 SLP081 T02000156

Sunrise: 5:54am; Sunset: 9:04pm; Moonrise: 10:00pm; Moonset: 6:36am; Day length: 15h 10m

June 17

8:53 AM 70.0 °F 61.0 °F 73% 29.90 in 10.0 miles NNW 6.9 mph – N/A Clear

METAR KLPR 171253Z AUTO 33006KT 10SM CLR 21/16 A2991 RMK AO2 SLP123 T02110161

Sunrise: 5:54am; Sunset: 9:04pm; Moonrise: 10:40pm; Moonset: 7:42am; Day length: 15h 10m

June 18

8:53 AM 71.1 °F 64.9 °F 81% 29.94 in 10.0 miles South 3.5 mph – N/A Clear

METAR KLPR 181253Z AUTO 19003KT 10SM CLR 22/18 A2996 RMK AO2 SLP139 T02170183

Sunrise: 5:54am; Sunset: 9:05pm; Moonrise: 11:14pm; Moonset: 8:49am; Day length: 15h 10m

June 19

8:53 AM 72.0 °F 62.1 °F 71% 29.84 in 10.0 miles Calm Calm – N/A Clear

METAR KLPR 191253Z AUTO 00000KT 10SM CLR 22/17 A2985 RMK AO2 SLP104 T02220167

Sunrise: 5:54am; Sunset: 9:05pm; Moonrise: 11:43pm; Moonset: 9:54am; Day length: 15h 11m

June 20

8:26 AM 66.2 °F 66.2 °F 100% 29.86 in 1.2 miles Calm Calm – N/A Overcast

SPECI KLPR 201226Z AUTO 00000KT 1 1/4SM BR OVC001 19/19 A2986 RMK AO2

Sunrise: 5:54am; Sunset: 9:05pm; Moonrise: none; Moonset: 10:56am; Day length: 15h 11m

June 21

8:44 AM 71.6 °F 66.2 °F 83% 29.88 in 8.0 miles SSE 4.6 mph – 0.19 in Rain , Thunderstorm Light Thunderstorms and Rain

SPECI KLPR 211244Z AUTO 16004KT 8SM -TSRA FEW008 BKN034 OVC041 22/19 A2988 RMK AO2 LTG DSNT N AND NW TSB39RAB28 P0019

Sunrise: 5:55am; Sunset: 9:05pm; Moonrise: 12:08am; Moonset: 11:57am; Day length: 15h 11m

June 22

8:53 AM 73.0 °F 66.9 °F 81% 29.80 in 10.0 miles SSW 10.4 mph – N/A Overcast

METAR KLPR 221253Z AUTO 21009KT 10SM FEW019 OVC026 23/19 A2982 RMK AO2 SLP090 T02280194

Sunrise: 5:55am; Sunset: 9:06pm; Moonrise: 12:32am; Moonset: 12:56pm; Day length: 15h 11m

June 23

8:53 AM 73.0 °F 63.0 °F 71% 29.68 in 10.0 miles SSW 9.2 mph 23.0 mph N/A Mostly Cloudy

METAR KLPR 231253Z AUTO 21008G20KT 10SM BKN075 BKN090 23/17 A2970 RMK AO2 SLP049 T02280172

Sunrise: 5:55am; Sunset: 9:06pm; Moonrise: 12:56am; Moonset: 1:55pm; Last Qtr: 6:49am; Day length: 15h 11m

June 24

8:53 AM 64.9 °F 63.0 °F 93% 29.67 in 10.0 miles West 13.8 mph – 0.00 in Overcast

METAR KLPR 241253Z AUTO 26012KT 10SM BKN013 OVC065 18/17 A2968 RMK AO2 RAE1158 SLP047 P0000 T01830172

Sunrise: 5:55am; Sunset: 9:06pm; Moonrise: 1:20am; Moonset: 2:53pm; Day length: 15h 11m

June 25

8:53 AM 64.0 °F 55.9 °F 75% 29.86 in 10.0 miles WNW 13.8 mph 21.9 mph N/A Mostly Cloudy

METAR KLPR 251253Z AUTO 29012G19KT 10SM BKN017 18/13 A2987 RMK AO2 SLP112 T01780133

Sunrise: 5:56am; Sunset: 9:06pm; Moonrise: 1:46am; Moonset: 3:53pm; Day length: 15h 11m

June 26

8:53 AM 66.9 °F 60.1 °F 79% 30.00 in 10.0 miles Calm Calm – N/A Clear

METAR KLPR 261253Z AUTO 00000KT 10SM CLR 19/16 A3001 RMK AO2 SLP159 T01940156

Sunrise: 5:56am; Sunset: 9:06pm; Moonrise: 2:15am; Moonset: 4:53pm; Day length: 15h 10m

June 27

8:53 AM 68.0 °F 59.0 °F 73% 30.01 in 10.0 miles SSE 6.9 mph – N/A Clear

METAR KLPR 271253Z AUTO 15006KT 10SM CLR 20/15 A3002 RMK AO2 SLP162 T02000150

Sunrise: 5:56am; Sunset: 9:06pm; Moonrise: 2:49am; Moonset: 5:54pm; Day length: 15h 10m

June 28

8:48 AM 75.2 °F 66.2 °F 73% 29.88 in 10.0 miles West 10.4 mph 19.6 mph N/A Mostly Cloudy

SPECI KLPR 281248Z AUTO 28009G17KT 10SM BKN017 BKN041 24/19 A2988 RMK AO2

Sunrise: 5:57am; Sunset: 9:06pm; Moonrise: 3:29am; Moonset: 6:53pm; Day length: 15h 10m

June 29

8:53 AM 66.9 °F 57.0 °F 70% 30.08 in 10.0 miles NW 10.4 mph – N/A Scattered Clouds

METAR KLPR 291253Z AUTO 32009KT 10SM SCT022 19/14 A3009 RMK AO2 SLP184 T01940139

Sunrise: 5:57am; Sunset: 9:06pm; Moonrise: 4:16am; Moonset: 7:48pm; Day length: 15h 9m

June 30

8:53 AM 68.0 °F 59.0 °F 73% 30.12 in 10.0 miles Calm Calm – N/A Clear

METAR KLPR 301253Z AUTO 00000KT 10SM CLR 20/15 A3013 RMK AO2 SLP198 T02000150

Sunrise: 5:58am; Sunset: 9:06pm; Moonrise: 5:11am; Moonset: 8:38pm; Day length: 15h 9m

 Weather Data from this Great Site

Erie Effects: May, 2011 Wx Log

leave a comment »

May 1

8:53 AM 55.0 °F 50.0 °F 83% 30.01 in 10.0 miles SSE 10.4 mph – 0.03 in Overcast

METAR KLPR 011253Z AUTO 15009KT 10SM OVC050 13/10 A3001 RMK AO2 RAE09B37E49 SLP160 P0003 T01280100

Sunrise: 6:26am; Sunset: 8:25pm; Moonrise: 5:15am; Moonset: 7:14pm; Day length: 13h 58m

May 2

8:53 AM 53.1 °F 45.0 °F 74% 30.11 in 10.0 miles Calm Calm – 0.00 in Rain Light Rain

METAR KLPR 021253Z AUTO 00000KT 10SM -RA FEW025 OVC046 12/07 A3011 RMK AO2 RAB18 SLP195 P0000 T01170072

Sunrise: 6:25am; Sunset: 8:26pm; Moonrise: 5:43am; Moonset: 8:15pm; Day length: 14h 1m

May 3

8:28 AM 44.6 °F 42.8 °F 93% 30.10 in 2.0 miles NNE 11.5 mph – 0.10 in Rain Rain

SPECI KLPR 031228Z AUTO 02010KT 2SM RA BR BKN005 OVC010 07/06 A3010 RMK AO2 CIG 004V009 P0010

Sunrise: 6:24am; Sunset: 8:27pm; Moonrise: 6:16am; Moonset: 9:16pm; New Moon: 1:52am; Day length: 1h 3m

May 4

8:53 AM 43.0 °F 37.0 °F 80% 30.27 in 10.0 miles North 10.4 mph – N/A Overcast

METAR KLPR 041253Z AUTO 36009KT 10SM FEW013 OVC021 06/03 A3025 RMK AO2 SLP248 T00610028

Sunrise: 6:23am; Sunset: 8:28pm; Moonrise: 6:54am; Moonset: 10:15pm; Day length: 14h 6m

May 5

8:53 AM 50.0 °F 37.0 °F 61% 30.32 in 10.0 miles NW 11.5 mph – N/A Clear

METAR KLPR 051253Z AUTO 31010KT 10SM CLR 10/03 A3030 RMK AO2 SLP265 T01000028

Sunrise: 6:21am; Sunset: 8:29pm; Moonrise: 7:39am; Moonset: 11:10pm; Day length: 14h 8m

May 6

8:53 AM 54.0 °F 41.0 °F 62% 29.90 in 10.0 miles SSW 9.2 mph – N/A Clear

METAR KLPR 061253Z AUTO 21008KT 10SM CLR 12/05 A2990 RMK AO2 SLP123 T01220050

Sunrise: 6:20am; Sunset: 8:30pm; Moonrise: 8:31am; Moonset: 12:00pm; Day length: 14h 10m

May 7

8:53 AM 55.9 °F 46.9 °F 72% 29.90 in 10.0 miles SW 10.4 mph – 0.01 in Scattered Clouds

METAR KLPR 071253Z AUTO 23009KT 10SM SCT120 13/08 A2989 RMK AO2 SLP123 P0001 T01330083

Sunrise: 6:19am; Sunset: 8:31pm; Moonrise: 9:30am; Moonset: none; Day length: 14h 12m

May 8

8:53 AM 55.9 °F 48.0 °F 75% 30.00 in 10.0 miles NE 3.5 mph – N/A Scattered Clouds

METAR KLPR 081253Z AUTO 05003KT 10SM SCT080 13/09 A3000 RMK AO2 SLP158 T01330089

Sunrise: 6:18am; Sunset: 8:32pm; Moonrise: 10:34am; Moonset: 12:45am; Day length: 14h 15m

May 9

8:53 AM 55.9 °F 41.0 °F 57% 30.15 in 10.0 miles East 9.2 mph – N/A Clear

METAR KLPR 091253Z AUTO 09008KT 10SM CLR 13/05 A3015 RMK AO2 SLP210 T01330050

Sunrise: 6:16am; Sunset: 8:33pm; Moonrise: 11:42am; Moonset: 1:24am; Day length: 14h 17m

May 10

8:53 AM 60.1 °F 41.0 °F 49% 30.01 in 10.0 miles SE 11.5 mph – N/A Scattered Clouds

METAR KLPR 101253Z AUTO 13010KT 10SM SCT110 16/05 A3001 RMK AO2 SLP162 T01560050

Sunrise: 6:15am; Sunset: 8:34pm; Moonrise: 12:52pm; Moonset: 1:58am; First Qtr: 3:34pm; Day length: 14h 19m

May 11

8:53 AM 66.0 °F 50.0 °F 56% 29.96 in 10.0 miles South 4.6 mph – N/A Clear

METAR KLPR 111253Z AUTO 17004KT 10SM CLR 19/10 A2997 RMK AO2 SLP145 T01890100

Sunrise: 6:14am; Sunset: 8:35pm; Moonrise: 2:02pm; Moonset: 2:29am; Day length: 14h 21m

May 12

8:45 AM 57.2 °F 53.6 °F 88% 29.95 in 4.0 miles SW 9.2 mph – 0.03 in Rain Rain

SPECI KLPR 121245Z AUTO 23008KT 4SM RA BR BKN040 14/12 A2995 RMK AO2 LTG DSNT W AND NW TSB11E39RAB38 P0003

Sunrise: 6:13am; Sunset: 8:36pm; Moonrise: 3:14pm; Moonset: 2:59am; Day length: 14h 23m

May 13

8:53 AM 72.0 °F 64.0 °F 76% 29.76 in 7.0 miles South 6.9 mph – N/A Clear

METAR KLPR 131253Z AUTO 19006KT 7SM CLR 22/18 A2977 RMK AO2 SLP076 T02220178

Sunrise: 6:12am; Sunset: 8:37pm; Moonrise: 4:28pm; Moonset: 3:28am; Day length: 14h 25m

May 14

8:45 AM 64.4 °F 62.6 °F 94% 29.67 in 5.0 miles Calm Calm – N/A Mostly Cloudy

SPECI KLPR 141245Z AUTO 00000KT 5SM BR FEW004 BKN100 18/17 A2967 RMK AO2

Sunrise: 6:11am; Sunset: 8:38pm; Moonrise: 5:43pm; Moonset: 3:59am; Day length: 14h 27m
May 15

8:27 AM 53.6 °F 51.8 °F 94% 29.57 in 1.0 miles NE 5.8 mph – 0.01 in Overcast

SPECI KLPR 151227Z AUTO 05005KT 1SM BR OVC002 12/11 A2957 RMK AO2 RAB05E23 P0001

Sunrise: 6:10am; Sunset: 8:39pm; Moonrise: 6:59pm; Moonset: 4:33am; Day length: 14h 29m

May 16

8:53 AM 45.0 °F 42.1 °F 90% 29.80 in 1.8 miles NNE 16.1 mph 25.3 mph 0.01 in Rain Light Rain

METAR KLPR 161253Z AUTO 03014G22KT 1 3/4SM -RA BR BKN008 BKN014 OVC020 07/06 A2979 RMK AO2 VIS 1 1/4V2 1/2 CIG 005V010 SLP091 P0001 T00720056

Sunrise: 6:09am; Sunset: 8:41pm; Moonrise: 8:14pm; Moonset: 5:12am; Day length: 14h 31m

May 17

8:53 AM 46.9 °F 43.0 °F 86% 29.88 in 10.0 miles NE 18.4 mph 25.3 mph N/A Overcast

METAR KLPR 171253Z AUTO 04016G22KT 10SM OVC007 08/06 A2987 RMK AO2 SLP119 T00830061

Sunrise: 6:08am; Sunset: 8:41pm; Moonrise: 9:25pm; Moonset: 5:57am; Full Moon: 6:10am; Day length: 14h 33m

May 18

8:53 AM 53.1 °F 51.1 °F 93% 29.81 in 5.0 miles North 3.5 mph – N/A Overcast METAR KLPR 181253Z AUTO 01003KT 5SM BR OVC001 12/11 A2981 RMK AO2 SLP095 T01170106

Sunrise: 6:07am; Sunset: 8:42pm; Moonrise: 10:29pm; Moonset: 6:50am; Day length: 14h 35m

May 19

8:23 AM 55.4 °F 53.6 °F 94% 29.95 in 5.0 miles South 8.1 mph – N/A Overcast

SPECI KLPR 191223Z AUTO 19007KT 5SM BR FEW007 OVC019 13/12 A2995 RMK AO2

Sunrise: 6:06am; Sunset: 8:43pm; Moonrise: 11:23pm; Moonset: 7:50am; Day length: 14h 37m

May 20

8:18 AM 57.2 °F 55.4 °F 94% 30.08 in 3.0 miles Calm Calm – N/A Overcast

SPECI KLPR 201218Z AUTO 00000KT 3SM BR OVC001 14/13 A3008 RMK AO2

Sunrise: 6:05am; Sunset: 8:44pm; Moonrise: none; Moonset: 8:55am; Day length: 14h 39m

May 21

8:53 AM 63.0 °F 55.9 °F 78% 30.09 in 6.0 miles South 5.8 mph – N/A Haze

METAR KLPR 211253Z AUTO 19005KT 6SM HZ CLR 17/13 A3009 RMK AO2 SLP188 T01720133

Sunrise: 6:05am; Sunset: 8:45pm; Moonrise: 12:08am; Moonset: 10:01am; Day length: 14h 41m

May 22

8:53 AM 66.9 °F 61.0 °F 81% 29.94 in 10.0 miles South 9.2 mph – N/A Mostly Cloudy

METAR KLPR 221253Z AUTO 19008KT 10SM FEW038 SCT060 BKN080 19/16 A2996 RMK AO2 SLP139 T01940161

Sunrise: 6:04am; Sunset: 8:46pm; Moonrise: 12:44am; Moonset: 11:06am; Day length: 14h 43m

May 23

8:53 AM 70.0 °F 60.1 °F 71% 29.75 in 10.0 miles SSW 18.4 mph 26.5 mph N/A Clear

METAR KLPR 231253Z AUTO 21016G23KT 10SM CLR 21/16 A2976 RMK AO2 SLP072 T02110156 $

Sunrise: 6:03am; Sunset: 8:47pm; Moonrise: 1:15am; Moonset: 12:09pm; Day length: 14h 44m

May 24

8:53 AM 66.9 °F 61.0 °F 81% 29.82 in 10.0 miles West 9.2 mph – N/A Partly Cloudy

METAR KLPR 241253Z AUTO 26008KT 10SM FEW013 19/16 A2983 RMK AO2 SLP097 T01940161

Sunrise: 6:02am; Sunset: 8:48pm; Moonrise: 1:42am; Moonset: 1:10pm; Last Qtr: 1:53pm; Day length: 14h 46m

May 25

8:53 AM 63.0 °F 55.9 °F 78% 29.91 in 10.0 miles SSE 5.8 mph – N/A Partly Cloudy

METAR KLPR 251253Z AUTO 15005KT 10SM FEW110 17/13 A2992 RMK AO2 SLP129 T01720133

Sunrise: 6:01am; Sunset: 8:49pm; Moonrise: 2:06am; Moonset: 2:09pm; Day length: 14h 48m

May 26

8:45 AM 66.2 °F 64.4 °F 94% 29.71 in 10.0 miles SSW 8.1 mph – N/A Mostly Cloudy

SPECI KLPR 261245Z AUTO 21007KT 10SM BKN021 BKN100 19/18 A2971 RMK AO2

Sunrise: 6:01am; Sunset: 8:50pm; Moonrise: 2:29am; Moonset: 3:07pm; Day length: 14h 49m

May 27

8:39 AM 53.6 °F 51.8 °F 94% 29.93 in 1.8 miles Calm Calm – N/A Overcast

SPECI KLPR 271239Z AUTO 00000KT 1 3/4SM BR OVC002 12/11 A2993 RMK AO2

Sunrise: 6:00am; Sunset: 8:51pm; Moonrise: 2:53am; Moonset: 4:05pm; Day length: 14h 51m

May 28

8:53 AM 62.1 °F 57.9 °F 86% 29.93 in 8.0 miles SW 6.9 mph – N/A Overcast

METAR KLPR 281253Z AUTO 22006KT 8SM OVC036 17/14 A2993 RMK AO2 SLP133 T01670144

Sunrise: 5:59am; Sunset: 8:52pm; Moonrise: 3:17am; Moonset: 5:05pm; Day length: 14h 52m

May 29

8:53 AM 73.0 °F 64.0 °F 73% 29.94 in 10.0 miles SSW 9.2 mph – N/A Mostly Cloudy

METAR KLPR 291253Z AUTO 20008KT 10SM BKN060 BKN075 BKN100 23/18 A2995 RMK AO2 SLP137 T02280178

Sunrise: 5:59am; Sunset: 8:53pm; Moonrise: 3:45am; Moonset: 6:05pm; Day length: 14h 54m

May 30

8:53 AM 77.0 °F 69.1 °F 76% 30.14 in 9.0 miles SW 6.9 mph – N/A Clear

METAR KLPR 301253Z AUTO 22006KT 9SM CLR 25/21 A3015 RMK AO2 SLP206 T02500206

Sunrise: 5:58am; Sunset: 8:53pm; Moonrise: 4:16am; Moonset: 7:06pm; Day length: 14h 55m

May 31

8:53 AM 79.0 °F 71.1 °F 77% 30.20 in 8.0 miles SW 6.9 mph – N/A Clear

METAR KLPR 311253Z AUTO 22006KT 8SM CLR 26/22 A3022 RMK AO2 SLP226 T02610217

Sunrise: 5:58am; Sunset: 8:54pm; Moonrise: 4:52am; Moonset: 8:06pm; Day length: 14h 56m

 Weather Data from this Great Site

Erie Effects: April, 2011 Wx Log

leave a comment »

April 1

8:53 AM 35.1 °F 28.9 °F 78% 29.68 in 5.0 miles Calm Calm – N/A Haze

METAR KLPR 011253Z AUTO 00000KT 5SM HZ OVC070 02/M02 A2966 RMK AO2 SLP049 T00171017

Sunrise: 7:13am; Sunset: 7:52pm; Moonrise: 5:59am; Moonset: 6:24pm; Day length: 12h 40m

April 2

8:28 AM 35.6 °F 33.8 °F 93% 29.65 in 2.0 miles West 4.6 mph – N/A Partly Cloudy

SPECI KLPR 021228Z AUTO 28004KT 2SM BR FEW065 02/01 A2965 RMK AO2

Sunrise: 7:11am; Sunset: 7:53pm; Moonrise: 6:22am; Moonset: 7:23pm; Day length: 12h 42m

April 3

8:53 AM 35.1 °F 30.9 °F 85% 30.09 in 8.0 miles SSW 4.6 mph – N/A Partly Cloudy

METAR KLPR 031253Z AUTO 20004KT 8SM FEW080 02/M01 A3007 RMK AO2 SLP189 T00171006

Sunrise: 7:09am; Sunset: 7:55pm;; Moonrise: 6:46am; Moonset: 8:22pm; New Moon: 9:33am; Day length: 12h 45m

April 4

8:30 AM 64.4 °F 57.2 °F 77% 29.40 in 4.0 miles SW 17.3 mph 33.4 mph 0.17 in Rain, Thunderstorm Light Thunderstorms and Rain

SPECI KLPR 041230Z AUTO 22015G29KT 4SM -TSRA BKN031 OVC046 18/14 A2940 RMK AO2 PK WND 23049/1218 WSHFT 1211 LTG DSNT ALQDS TSB10RAB05 P0017

Sunrise: 7:08am; Sunset: 7:56pm; Moonrise: 7:12am; Moonset: 9:22pm; Day length: 12h 48m

April 5

8:23 AM 35.6 °F 28.4 °F 75% 29.67 in 10.0 miles NW 18.4 mph 26.5 mph N/A Overcast

SPECI KLPR 051223Z AUTO 31016G23KT 10SM OVC032 02/M02 A2967 RMK AO2 PRESRR

Sunrise: 7:06am; Sunset: 7:57pm; Moonrise: 7:41am; Moonset: 10:23pm; Day length: 12h 51m

April 6

8:53 AM 39.0 °F 30.0 °F 70% 29.88 in 10.0 miles South 10.4 mph – 0.00 in Mostly Cloudy

METAR KLPR 061253Z AUTO 18009KT 10SM FEW041 SCT055 BKN080 04/M01 A2987 RMK AO2 RAE00B18E29 SLP119 P0000 T00391011

Sunrise: 7:04am; Sunset: 7:58pm; Moonrise: 8:15am; Moonset: 11:22pm; Day length: 12h 53m

April 7

8:31 AM 37.4 °F 37.4 °F 100% 30.07 in 1.0 miles NNE 4.6 mph – N/A Overcast

SPECI KLPR 071231Z AUTO 02004KT 1SM BR OVC002 03/03 A3007 RMK AO2

Sunrise: 7:03am; Sunset: 7:59pm; Moonrise: 8:54am; Moonset: none; Day length: 12h 56m

April 8

8:45 AM 44.6 °F 44.6 °F 100% 29.97 in 2.5 miles East 11.5 mph – 0.02 in Rain Light Rain

SPECI KLPR 081245Z AUTO 09010KT 2 1/2SM -RA BR OVC065 07/07 A2997 RMK AO2 P0002

Sunrise: 7:01am; Sunset: 8:00pm; Moonrise: 9:41am; Moonset: 12:20am; Day length: 12h 59m

April 9

8:36 AM 44.6 °F 42.8 °F 93% 30.07 in 5.0 miles SE 4.6 mph – N/A Overcast

SPECI KLPR 091236Z AUTO 14004KT 5SM BR SCT006 OVC013 07/06 A3007 RMK AO2

Sunrise: 6:59am; Sunset: 8:01pm; Moonrise: 10:35am; Moonset: 1:14am; Day length: 13h 2m

April 10

8:53 AM 55.9 °F 53.1 °F 90% 29.92 in 8.0 miles South 15.0 mph – 0.00 in Clear

METAR KLPR 101253Z AUTO 18013KT 8SM CLR 13/12 A2992 RMK AO2 RAE04 SLP132 P0000 T01330117

Sunrise: 6:58am; Sunset: 8:02pm; Moonrise: 11:36am; Moonset: 2:03am; Day length: 13h 4m

April 11

8:53 AM 66.0 °F 63.0 °F 90% 29.58 in 10.0 miles SSW 13.8 mph – 0.00 in Rain Light Rain

METAR KLPR 111253Z AUTO 21012KT 10SM -RA OVC100 19/17 A2960 RMK AO2 RAE1156B48 SLP017 P0000 T01890172

Sunrise: 6:56am; Sunset: 8:03pm; Moonrise: 12:42pm; Moonset: 2:46am; First Qtr: 7:06am; Day length: 13h 7m

April 12

8:53 AM 42.1 °F 35.1 °F 76% 29.90 in 10.0 miles NE 18.4 mph 27.6 mph N/A Overcast

METAR KLPR 121253Z AUTO 04016G24KT 10SM OVC024 06/02 A2989 RMK AO2 SLP124 T00560017

Sunrise: 6:55am; Sunset: 8:04pm; Moonrise: 1:52pm; Moonset: 3:24am; Day length: 13h 10m

April 13

8:53 AM 42.1 °F 33.1 °F 70% 30.04 in 10.0 miles NNW 5.8 mph – N/A Clear

METAR KLPR 131253Z AUTO 34005KT 10SM CLR 06/01 A3002 RMK AO2 SLP172 T00560006

Sunrise: 6:53am; Sunset: 8:05pm; Moonrise: 3:04pm; Moonset: 3:58am; Day length: 13h 12m

April 14

8:53 AM 46.9 °F 35.1 °F 63% 30.14 in 10.0 miles North 9.2 mph – N/A Partly Cloudy

METAR KLPR 141253Z AUTO 01008KT 10SM FEW085 08/02 A3013 RMK AO2 SLP205 T00830017

Sunrise: 6:51am; Sunset: 8:06pm; Moonrise: 4:18pm; Moonset: 4:29am; Day length: 13h 15m

April 15

8:53 AM 44.1 °F 35.1 °F 71% 30.19 in 10.0 miles East 16.1 mph – N/A Clear

METAR KLPR 151253Z AUTO 08014KT 10SM CLR 07/02 A3018 RMK AO2 SLP224 T00670017

Sunrise: 6:50am; Sunset: 8:08pm; Moonrise: 5:34pm; Moonset: 4:59am; Day length: 13h 18m

April 16

8:53 AM 55.9 °F 50.0 °F 80% 29.50 in 10.0 miles South 18.4 mph 27.6 mph 0.00 in Overcast

METAR KLPR 161253Z AUTO 17016G24KT 10SM BKN022 OVC029 13/10 A2950 RMK AO2 PK WND 16030/1229 RAE00 SLP988 P0000 T01330100

Sunrise: 6:48am; Sunset: 8:09pm; Moonrise: 6:51pm; Moonset: 5:30am; Day length: 13h 20m

April 17

8:53 AM 43.0 °F 35.1 °F 74% 29.72 in 10.0 miles WSW 15.0 mph – N/A Overcast

METAR KLPR 171253Z AUTO 25013KT 10SM BKN025 BKN032 OVC045 06/02 A2971 RMK AO2 PK WND 25028/1237 SLP063 T00610017

Sunrise: 6:47am; Sunset: 8:10pm; Moonrise: 8:09pm; Moonset: 6:03am; Full Moon: 9:45pm; Day length: 13h 23m

April 18

8:53 AM 39.9 °F 34.0 °F 79% 29.93 in 10.0 miles East 6.9 mph – 0.00 in Rain Light Rain

METAR KLPR 181253Z AUTO 10006KT 10SM -RA FEW041 SCT070 04/01 A2992 RMK AO2 RAB42 SLP135 P0000 T00440011

Sunrise: 6:45am; Sunset: 8:11pm; Moonrise: 9:26pm; Moonset: 6:40am; Day length: 13h 26m

April 19

8:53 AM 37.9 °F 34.0 °F 86% 30.01 in 4.0 miles ENE 13.8 mph – 0.05 in Rain Light Rain

METAR KLPR 191253Z AUTO 06012KT 4SM -RA BR OVC024 03/01 A2999 RMK AO2 SLP163 P0005 T00330011

Sunrise: 6:44am; Sunset: 8:12pm; Moonrise: 10:40pm; Moonset: 7:22am; Day length: 13h 28m

April 20

8:13 AM 62.6 °F 55.4 °F 77% 29.62 in 10.0 miles SW 24.2 mph 38.0 mph N/A Overcast

SPECI KLPR 201213Z AUTO 23021G33KT 10SM SCT025 BKN029 OVC038 17/13 A2962 RMK AO2 PK WND 23034/1201

Sunrise: 6:42am; Sunset: 8:13pm; Moonrise: 11:47pm; Moonset: 8:11am; Day length: 13h 31m

April 21

8:53 AM 42.1 °F 30.9 °F 65% 30.38 in 10.0 miles WNW 11.5 mph – N/A Partly Cloudy

METAR KLPR 211253Z AUTO 29010KT 10SM FEW026 06/M01 A3036 RMK AO2 SLP287 T00561006

Sunrise: 6:41am; Sunset: 8:14pm; Moonrise: none; Moonset: 9:06am; Day length: 13h 33m

April 22

8:53 PM 48.9 °F 46.0 °F 90% 29.89 in 10.0 miles South 12.7 mph – N/A Overcast

METAR KLPR 230053Z AUTO 17011KT 10SM OVC005 09/08 A2988 RMK AO2 SLP122 T00940078

Sunrise: 6:39am; Sunset: 8:15pm; Moonrise: 12:45am; Moonset: 10:08am; Day length: 13h 36m

April 23

8:35 AM 64.4 °F 57.2 °F 77% 29.77 in 10.0 miles SW 13.8 mph – N/A Overcast

SPECI KLPR 231235Z AUTO 23012KT 10SM BKN025 OVC030 18/14 A2977 RMK AO2

Sunrise: 6:38am; Sunset: 8:16pm; Moonrise: 1:34am; Moonset: 11:12am; Day length: 13h 39m

April 24

8:53 AM 53.1 °F 50.0 °F 89% 30.04 in 5.0 miles Calm Calm – 0.02 in Overcast

METAR KLPR 241253Z AUTO 00000KT 5SM BR OVC039 12/10 A3004 RMK AO2 RAB1158E45 SLP170 P0002 T01170100

Sunrise: 6:36am; Sunset: 8:17pm; Moonrise: 2:13am; Moonset: 12:16pm; Last Qtr: 9:48pm; Day length: 13h 41m

April 25

8:21 AM 51.8 °F 51.8 °F 100% 30.00 in 1.2 miles ENE 4.6 mph – 0.00 in Rain Light Rain

SPECI KLPR 251221Z AUTO 07004KT 1 1/4SM -RA BR OVC003 11/11 A3000 RMK AO2 CIG 001V005 P0000

Sunrise: 6:35am; Sunset: 8:18pm; Moonrise: 2:46am; Moonset: 1:19pm; Day length: 13h 44m

April 26

7:53 AM 64.9 °F 57.9 °F 78% 29.66 in 10.0 miles South 18.4 mph – N/A Clear

METAR KLPR 261153Z AUTO 17016KT 10SM CLR 18/14 A2966 RMK AO2 SLP044 60005 70195 T01830144 10183 20089 58022 $

Sunrise: 6:33am; Sunset: 8:19pm; Moonrise: 3:14am; Moonset: 2:20pm; Day length: 13h 46m

April 27

8:53 AM 66.9 °F 57.9 °F 73% 29.60 in 10.0 miles South 16.1 mph 21.9 mph 0.00 in Scattered Clouds

METAR KLPR 271253Z AUTO 17014G19KT 10SM SCT090 19/14 A2961 RMK AO2 RAB1159E09 SLP023 P0000 T01940144

Sunrise: 6:32am; Sunset: 8:21pm; Moonrise: 3:39am; Moonset: 3:19pm; Day length: 13h 49m

April 28

8:43 AM 48.2 °F 44.6 °F 87% 29.62 in 8.0 miles WSW 26.5 mph 43.7 mph 0.01 in Overcast

SPECI KLPR 281243Z AUTO 24023G38KT 8SM FEW010 BKN025 OVC031 09/07 A2962 RMK AO2 PK WND 23038/1240 RAB09E37 P0001

Sunrise: 6:30am; Sunset: 8:22pm; Moonrise: 4:03am; Moonset: 4:17pm; Day length: 13h 51m

April 29

8:53 AM 43.0 °F 37.9 °F 82% 29.88 in 5.0 miles WNW 15.0 mph – 0.00 in Rain Light Rain

METAR KLPR 291253Z AUTO 29013KT 5SM -RA OVC016 06/03 A2987 RMK AO2 SLP117 P0000 T00610033

Sunrise: 6:29am; Sunset: 8:23pm; Moonrise: 4:26am; Moonset: 5:16pm; Day length: 13h 54m

April 30

8:53 AM 46.0 °F 37.0 °F 71% 30.19 in 10.0 miles SSE 10.4 mph – N/A Clear

METAR KLPR 301253Z AUTO 15009KT 10SM CLR 08/03 A3019 RMK AO2 SLP224 T00780028

Sunrise: 6:28am; Sunset: 8:24pm; Moonrise: 4:50am; Moonset: 6:15pm; Day length: 13h 56m

Weather Data from this Great Site


Erie Effects: March, 2011 Wx Log

leave a comment »

March 1

8:53 AM 27.0 °F 23.0 °F 85% 30.34 in 6.0 miles South 9.2 mph – N/A Partly Cloudy

METAR KLPR 011353Z AUTO 17008KT 6SM BR FEW085 M03/M05 A3031 RMK AO2 SLP273 T10281050

Sunrise: 7:04am; Sunset: 6:18pm; Moonrise: 5:13am; Moonset: 3:32pm; Day length: 11h 13m

March 2

8:53 AM 36.0 °F 28.0 °F 73% 30.27 in 8.0 miles NW 15.0 mph 20.7 mph N/A Clear

METAR KLPR 021353Z AUTO 32013G18KT 8SM CLR 02/M02 A3024 RMK AO2 SLP248 T00221022

Sunrise: 7:03am; Sunset: 6:19pm; Moonrise: 5:42am; Moonset: 4:33pm; Day length: 11h 16m

March 3

8:53 AM 21.9 °F 8.1 °F 55% 30.65 in 10.0 miles SE 18.4 mph 24.2 mph N/A Clear

METAR KLPR 031353Z AUTO 14016G21KT 10SM CLR M06/M13 A3061 RMK AO2 SLP377 T10561133 TSNO

Sunrise: 7:01am; Sunset: 6:20pm; Moonrise: 6:07am; Moonset: 5:33pm; Day length: 11h 19m

March 4

8:53 AM 43.0 °F 26.1 °F 51% 30.23 in 10.0 miles South 13.8 mph – N/A Mostly Cloudy

METAR KLPR 041353Z AUTO 18012KT 10SM BKN065 BKN100 06/M03 A3021 RMK AO2 SLP235 T00611033

Sunrise: 6:59am; Sunset: 6:21pm; Moonrise: 6:31am; Moonset: 6:32pm; New Moon: 3:47pm; Day length: 11h 22m

March 5

8:53 AM 46.9 °F 43.0 °F 86% 29.94 in 8.0 miles South 23.0 mph 29.9 mph 0.06 in Rain Light Rain

METAR KLPR 051353Z AUTO 18020G26KT 8SM -RA BKN033 BKN044 OVC065 08/06 A2993 RMK AO2 PK WND 20028/1309 SLP137 P0006 T00830061

Sunrise: 6:58am; Sunset: 6:22pm; Moonrise: 6:54am; Moonset: 7:31pm; Day length: 11h 24m

March 6

8:53 AM 28.0 °F 25.0 °F 88% 30.18 in 10.0 miles NNE 19.6 mph 25.3 mph 0.00 in Overcast

METAR KLPR 061353Z AUTO 02017G22KT 10SM OVC008 M02/M04 A3015 RMK AO2 SNE12 SLP220 P0000 T10221039

Sunrise: 6:56am; Sunset: 6:23pm; Moonrise: 7:17am; Moonset: 8:30pm; Day length: 11h 27m

March 7

8:53 AM 25.0 °F 19.9 °F 81% 30.30 in 10.0 miles North 5.8 mph – N/A Overcast

METAR KLPR 071353Z AUTO 35005KT 10SM OVC010 M04/M07 A3027 RMK AO2 SLP261 T10391067

Sunrise: 6:55am; Sunset: 6:25pm; Moonrise: 7:41am; Moonset: 9:29pm; Day length: 11h 30m

March 8

8:53 AM 33.1 °F 24.1 °F 70% 30.40 in 10.0 miles SE 5.8 mph – N/A Clear

METAR KLPR 081353Z AUTO 13005KT 10SM CLR 01/M04 A3037 RMK AO2 SLP294 T00061044

Sunrise: 6:53am; Sunset: 6:26pm; Moonrise: 8:08am; Moonset: 10:29pm; Day length: 11h 33m

March 9

8:53 AM 41.0 °F 37.9 °F 89% 30.04 in 5.0 miles SSE 23.0 mph 33.4 mph 0.02 in Rain Light Rain

METAR KLPR 091353Z AUTO 16020G29KT 5SM -RA BR OVC014 05/03 A3002 RMK AO2 PK WND 17029/1351 SLP172 P0002 T00500033

Sunrise: 6:51am; Sunset: 6:27pm; Moonrise: 8:38am; Moonset: 11:30pm; Day length: 11h 35m

March 10

8:45 AM 44.6 °F 42.8 °F 93% 29.83 in 2.5 miles WNW 9.2 mph – 0.01 in Rain Light Rain

SPECI KLPR 101345Z AUTO 29008KT 2 1/2SM -RA BR SCT006 OVC024 07/06 A2983 RMK AO2 RAB27 P0001

Sunrise: 6:50am; Sunset: 6:28pm; Moonrise: 9:13am; Moonset: none; Day length: 11h 38m

March 11

8:36 AM 30.2 °F 28.4 °F 93% 29.84 in 0.5 miles WNW 13.8 mph – 0.01 in Fog , Snow Snow

SPECI KLPR 111336Z AUTO 29012KT 1/2SM SN FZFG SCT006 OVC012 M01/M02 A2984 RMK AO2 P0001

Sunrise: 6:48am; Sunset: 6:29pm; Moonrise: 9:55am; Moonset: 12:29am; Day length: 11h 41m

March 12

7:53 AM 37.0 °F 28.9 °F 73% 29.76 in 10.0 miles SSW 15.0 mph – N/A Overcast

METAR KLPR 121253Z AUTO 20013KT 10SM OVC095 03/M02 A2974 RMK AO2 SLP077 T00281017

Sunrise: 6:46am; Sunset: 6:30pm; Moonrise: 10:44am; Moonset: 1:27am; First Qtr: 6:46pm; Day length: 11h 44m

March 13

8:53 AM 34.0 °F 28.0 °F 79% 30.18 in 10.0 miles WNW 13.8 mph – N/A Overcast

METAR KLPR 131253Z AUTO 30012KT 10SM OVC028 01/M02 A3016 RMK AO2 SLP220 T00111022

Sunrise: 7:45am; Sunset: 7:31pm; Moonrise: 12:42pm; Moonset: 3:20am; Day length: 11h 47m

March 14

8:53 AM 30.9 °F 25.0 °F 79% 30.46 in 10.0 miles ENE 9.2 mph – N/A Overcast

METAR KLPR 141253Z AUTO 06008KT 10SM BKN019 OVC036 M01/M04 A3043 RMK AO2 SLP313 T10061039

Sunrise: 7:43am; Sunset: 7:33pm; Moonrise: 1:47pm; Moonset: 4:08am; Day length: 11h 49m

March 15

8:53 AM 32.0 °F 26.1 °F 79% 30.24 in 10.0 miles Calm Calm – N/A Clear

METAR KLPR 151253Z AUTO 00000KT 10SM CLR 00/M03 A3021 RMK AO2 SLP239 T00001033

Sunrise: 7:41am; Sunset: 7:34pm; Moonrise: 2:58pm; Moonset: 4:51am; Day length: 11h 52m

March 16

8:12 AM 39.2 °F 39.2 °F 100% 30.08 in 2.5 miles West 10.4 mph – N/A Overcast

SPECI KLPR 161212Z AUTO 27009KT 2 1/2SM BR BKN008 OVC012 04/04 A3008 RMK AO2 CIG 005V009

Sunrise: 7:40am; Sunset: 7:35pm; Moonrise: 4:12pm; Moonset: 5:28am; Day length: 11h 55m

March 17

8:53 AM 43.0 °F 37.0 °F 80% 30.18 in 8.0 miles SSW 11.5 mph – N/A Clear

METAR KLPR 171253Z AUTO 20010KT 8SM CLR 06/03 A3017 RMK AO2 SLP219 T00610028

Sunrise: 7:38am; Sunset: 7:36pm; Moonrise: 5:28pm; Moonset: 6:02am; Day length: 11h 58m

March 18

8:53 AM 52.0 °F 43.0 °F 71% 30.05 in 10.0 miles NW 9.2 mph – N/A Clear

METAR KLPR 181253Z AUTO 32008KT 10SM CLR 11/06 A3004 RMK AO2 SLP174 T01110061

Sunrise: 7:36am; Sunset: 7:37pm; Moonrise: 6:45pm; Moonset: 6:33am; Day length: 12h 1m

March 19

8:51 AM 33.8 °F 28.4 °F 81% 30.43 in 10.0 miles North 6.9 mph – N/A Mostly Cloudy

SPECI KLPR 191251Z AUTO 35006KT 10SM BKN014 01/M02 A3043 RMK AO2

Sunrise: 7:35am; Sunset: 7:38pm; Moonrise: 8:03pm; Moonset: 7:04am; Full Moon: 1:11pm; Day length: 12h 3m

March 20

7:53 AM 30.9 °F 24.1 °F 76% 30.54 in 10.0 miles SE 8.1 mph – N/A Clear

METAR KLPR 201153Z AUTO 14007KT 10SM CLR M01/M04 A3051 RMK AO2 SLP342 T10061044 11006 21017 58003

Sunrise: 7:33am; Sunset: 7:39pm; Moonrise: 9:21pm; Moonset: 7:36am; Day length: 12h 6m

March 21

8:49 AM 59.0 °F 51.8 °F 77% 29.97 in 10.0 miles WNW 15.0 mph 20.7 mph N/A Mostly Cloudy

SPECI KLPR 211249Z AUTO 29013G18KT 10SM BKN029 15/11 A2997 RMK AO2

Sunrise: 7:31am; Sunset: 7:40pm; Moonrise: 10:38pm; Moonset: 8:10am; Day length: 12h 9m

March 22

8:53 AM 39.0 °F 36.0 °F 89% 30.10 in 10.0 miles ENE 9.2 mph – N/A Scattered Clouds

METAR KLPR 221253Z AUTO 07008KT 10SM SCT031 04/02 A3009 RMK AO2 SLP193 T00390022

Sunrise: 7:30am; Sunset: 7:41pm; Moonrise: 11:53pm; Moonset: 8:48am; Day length: 12h 12m

March 23

8:53 AM 39.9 °F 39.0 °F 97% 29.59 in 4.0 miles East 8.1 mph – N/A Overcast

METAR KLPR 231253Z AUTO 08007KT 4SM BR OVC007 04/04 A2957 RMK AO2 SLP019 T00440039

Sunrise: 7:28am; Sunset: 7:43pm; Moonrise: none; Moonset: 9:32am; Day length: 12h 15m

March 24

8:34 AM 30.2 °F 21.2 °F 69% 29.89 in 10.0 miles NNE 15.0 mph – N/A Overcast

SPECI KLPR 241234Z AUTO 02013KT 10SM SCT023 OVC030 M01/M06 A2989 RMK AO2

Sunrise: 7:26am; Sunset: 7:44pm; Moonrise: 1:02am; Moonset: 10:23am; Day length: 12h 17m

March 25

8:53 AM 25.0 °F 19.0 °F 78% 30.14 in 10.0 miles SSW 3.5 mph – N/A Clear

METAR KLPR 251253Z AUTO 21003KT 10SM CLR M04/M07 A3011 RMK AO2 SLP205 T10391072

Sunrise: 7:25am; Sunset: 7:45pm; Moonrise: 2:04am; Moonset: 11:19am; Day length: 12h 20m

March 26

8:29 AM 24.8 °F 12.2 °F 59% 30.17 in 10.0 miles NE 12.7 mph – N/A Scattered Clouds

SPECI KLPR 261229Z AUTO 05011KT 10SM SCT025 M04/M11 A3017 RMK AO2

Sunrise: 7:23am; Sunset: 7:46pm; Moonrise: 2:56am; Moonset: 12:20pm; Last Qtr: 7:08am; Day length: 12h 23m\

March 27

8:53 AM 25.0 °F 15.1 °F 66% 30.19 in 10.0 miles NNE 11.5 mph – N/A Overcast

METAR KLPR 271253Z AUTO 03010KT 10SM OVC027 M04/M09 A3016 RMK AO2 SLP224 T10391094

Sunrise: 7:21am; Sunset: 7:47pm; Moonrise: 3:39am; Moonset: 1:23pm; Day length: 12h 26m

March 28

8:53 AM 25.0 °F 19.0 °F 78% 30.27 in 10.0 miles Calm Calm – N/A Clear

METAR KLPR 281253Z AUTO 00000KT 10SM CLR M04/M07 A3024 RMK AO2 SLP251 T10391072

Sunrise: 7:19am; Sunset: 7:48pm; Moonrise: 4:15am; Moonset: 2:26pm; Day length: 12h 29m

March 29

8:53 AM 26.1 °F 19.9 °F 78% 30.33 in 10.0 miles WSW 3.5 mph – N/A Clear

METAR KLPR 291253Z AUTO 24003KT 10SM CLR M03/M07 A3030 RMK AO2 SLP271 T10331067

Sunrise: 7:18am; Sunset: 7:49pm; Moonrise: 4:45am; Moonset: 3:27pm; Day length: 12h 31m

March 30

8:53 AM 30.9 °F 21.0 °F 67% 30.14 in 10.0 miles East 9.2 mph – N/A Clear

METAR KLPR 301253Z AUTO 08008KT 10SM CLR M01/M06 A3011 RMK AO2 SLP206 T10061061

Sunrise: 7:16a; Sunset: 7:50pm; Moonrise: 5:11am; Moonset: 4:27pm; Day length: 12h 34m

March 31

8:17 AM 32.0 °F 30.2 °F 93% 29.86 in 8.0 miles NNW 6.9 mph – N/A Overcast

SPECI KLPR 311217Z AUTO 34006KT 8SM OVC009 00/M01 A2986 RMK AO2 CIG 008V013

Sunrise: 7:14am; Sunset: 7:51pm; Moonrise: 5:36am; Moonset: 5:26pm; Day length: 12h 37m

Weather Data from This Great Site